createdAt,value
2023-03-03T00:00:54.559Z,3.62
2023-03-03T00:03:27.491Z,3.65
2023-03-03T00:05:57.231Z,3.63
2023-03-03T00:08:27.412Z,3.63
2023-03-03T00:10:56.942Z,3.62
2023-03-03T00:13:30.274Z,3.59
2023-03-03T00:16:36.346Z,3.56
2023-03-03T00:19:21.874Z,3.48
2023-03-03T00:21:53.370Z,3.40
2023-03-03T00:24:38.068Z,3.35
2023-03-03T00:27:37.512Z,3.47
2023-03-03T00:30:27.693Z,3.25
2023-03-03T00:32:56.836Z,3.42
2023-03-03T00:35:39.645Z,3.47
2023-03-03T00:38:18.671Z,3.52
2023-03-03T00:40:50.080Z,3.50
2023-03-03T00:43:29.526Z,3.45
2023-03-03T00:45:59.296Z,3.50
2023-03-03T00:48:43.134Z,3.50
2023-03-03T00:51:33.254Z,3.30
2023-03-03T00:54:02.743Z,3.42
2023-03-03T00:56:32.655Z,3.35
2023-03-03T00:59:02.206Z,3.46
2023-03-03T01:01:31.705Z,3.47
2023-03-03T01:04:01.192Z,3.46
2023-03-03T01:06:30.733Z,3.38
2023-03-03T01:09:00.373Z,3.30
2023-03-03T01:11:29.937Z,3.31
2023-03-03T01:13:59.515Z,3.04
2023-03-03T01:16:29.772Z,3.02
2023-03-03T01:18:59.257Z,2.85
2023-03-03T01:21:28.814Z,2.99
2023-03-03T01:23:58.366Z,3.13
2023-03-03T01:26:28.193Z,3.14
2023-03-03T01:28:57.754Z,2.97
2023-03-03T01:31:27.906Z,3.07
2023-03-03T01:33:57.473Z,3.22
2023-03-03T01:36:29.317Z,3.25
2023-03-03T01:38:58.867Z,3.26
2023-03-03T01:41:33.047Z,3.26
2023-03-03T01:44:02.712Z,3.34
2023-03-03T01:47:06.261Z,3.23
2023-03-03T01:49:41.616Z,3.30
2023-03-03T01:52:41.566Z,3.21
2023-03-03T01:55:22.647Z,2.89
2023-03-03T01:58:20.046Z,2.40
2023-03-03T02:01:00.836Z,2.35
2023-03-03T02:03:31.520Z,2.32
2023-03-03T02:06:10.151Z,2.44
2023-03-03T02:09:37.978Z,2.16
2023-03-03T02:12:14.497Z,2.31
2023-03-03T02:14:44.606Z,2.30
2023-03-03T02:17:14.204Z,1.89
2023-03-03T02:20:07.442Z,1.61
2023-03-03T02:22:53.537Z,1.36
2023-03-03T02:25:43.557Z,1.23
2023-03-03T02:28:13.360Z,1.12
2023-03-03T02:30:42.895Z,1.35
2023-03-03T02:33:12.524Z,1.45
2023-03-03T02:35:43.153Z,1.28
2023-03-03T02:38:35.151Z,1.27
2023-03-03T02:41:13.761Z,1.38
2023-03-03T02:44:08.054Z,1.36
2023-03-03T02:46:42.265Z,1.39
2023-03-03T02:49:17.727Z,1.44
2023-03-03T02:51:47.495Z,1.41
2023-03-03T02:54:20.495Z,1.45
2023-03-03T02:56:50.392Z,1.30
2023-03-03T02:59:20.633Z,1.06
2023-03-03T03:01:51.043Z,0.73
2023-03-03T03:04:27.934Z,0.89
2023-03-03T03:06:56.774Z,0.87
2023-03-03T03:09:28.362Z,1.22
2023-03-03T03:11:59.701Z,1.26
2023-03-03T03:14:29.535Z,1.33
2023-03-03T03:16:59.163Z,1.37
2023-03-03T03:19:29.357Z,1.47
2023-03-03T03:21:58.920Z,1.50
2023-03-03T03:24:28.429Z,1.53
2023-03-03T03:26:58.005Z,1.23
2023-03-03T03:29:27.610Z,1.44
2023-03-03T03:31:57.098Z,1.50
2023-03-03T03:34:26.596Z,1.65
2023-03-03T03:36:56.136Z,1.40
2023-03-03T03:39:25.698Z,1.30
2023-03-03T03:41:55.251Z,1.44
2023-03-03T03:44:25.404Z,1.54
2023-03-03T03:46:54.937Z,1.51
2023-03-03T03:49:24.556Z,1.59
2023-03-03T03:51:54.044Z,1.51
2023-03-03T03:54:23.821Z,1.40
2023-03-03T03:56:54.701Z,1.22
2023-03-03T03:59:24.247Z,0.95
2023-03-03T04:01:53.826Z,0.96
2023-03-03T04:04:23.569Z,1.00
2023-03-03T04:06:53.115Z,1.10
2023-03-03T04:09:22.684Z,1.13
2023-03-03T04:11:52.221Z,1.12
2023-03-03T04:14:21.744Z,0.93
2023-03-03T04:16:51.287Z,0.49
2023-03-03T04:19:20.389Z,0.27
2023-03-03T04:21:50.019Z,0.38
2023-03-03T04:24:19.753Z,0.62
2023-03-03T04:26:49.329Z,0.98
2023-03-03T04:29:18.906Z,1.23
2023-03-03T04:31:48.469Z,0.93
2023-03-03T04:34:17.992Z,0.88
2023-03-03T04:36:47.562Z,0.88
2023-03-03T04:39:17.372Z,0.75
2023-03-03T04:41:45.211Z,0.51
2023-03-03T04:44:15.782Z,0.26
2023-03-03T04:46:46.341Z,0.09
2023-03-03T04:49:15.954Z,0.02
2023-03-03T04:51:45.638Z,0.09
2023-03-03T04:54:15.308Z,0.01
2023-03-03T04:56:45.413Z,0.12
2023-03-03T04:59:15.522Z,0.14
2023-03-03T05:01:46.651Z,-0.05
2023-03-03T05:04:16.278Z,-0.13
2023-03-03T05:06:45.904Z,-0.09
2023-03-03T05:09:15.455Z,0.02
2023-03-03T05:11:45.057Z,-0.03
2023-03-03T05:14:14.565Z,0.11
2023-03-03T05:16:44.120Z,0.07
2023-03-03T05:19:13.897Z,0.12
2023-03-03T05:21:43.411Z,0.09
2023-03-03T05:24:14.836Z,-0.17
2023-03-03T05:26:44.372Z,-0.19
2023-03-03T05:29:13.938Z,-0.25
2023-03-03T05:31:45.516Z,-0.37
2023-03-03T05:34:15.385Z,-0.20
2023-03-03T05:36:43.228Z,-0.10
2023-03-03T05:39:12.927Z,-0.11
2023-03-03T05:41:42.609Z,0.20
2023-03-03T05:44:12.301Z,0.16
2023-03-03T05:46:42.837Z,0.34
2023-03-03T05:49:12.443Z,0.45
2023-03-03T05:51:42.025Z,0.59
2023-03-03T05:54:11.650Z,0.41
2023-03-03T05:56:41.286Z,0.53
2023-03-03T05:59:10.844Z,0.61
2023-03-03T06:01:40.468Z,0.64
2023-03-03T06:04:10.056Z,0.92
2023-03-03T06:06:39.622Z,1.00
2023-03-03T06:09:09.408Z,1.03
2023-03-03T06:11:39.873Z,1.27
2023-03-03T06:14:12.466Z,1.44
2023-03-03T06:16:42.080Z,1.75
2023-03-03T06:19:11.643Z,1.62
2023-03-03T06:21:41.787Z,1.83
2023-03-03T06:24:11.280Z,1.62
2023-03-03T06:26:40.876Z,1.72
2023-03-03T06:29:10.454Z,1.71
2023-03-03T06:31:39.992Z,1.66
2023-03-03T06:34:09.594Z,1.48
2023-03-03T06:36:39.184Z,1.68
2023-03-03T06:39:08.873Z,2.14
2023-03-03T06:41:38.888Z,2.40
2023-03-03T06:44:08.704Z,2.59
2023-03-03T06:46:38.760Z,2.82
2023-03-03T06:49:08.570Z,3.48
2023-03-03T06:51:40.341Z,3.68
2023-03-03T06:54:17.794Z,3.88
2023-03-03T06:56:49.243Z,3.74
2023-03-03T06:59:22.215Z,3.84
2023-03-03T07:01:52.701Z,4.12
2023-03-03T07:04:33.768Z,4.45
2023-03-03T07:07:18.940Z,4.44
2023-03-03T07:09:53.548Z,4.69
2023-03-03T07:12:30.910Z,4.66
2023-03-03T07:15:17.931Z,4.44
2023-03-03T07:17:52.065Z,4.49
2023-03-03T07:20:33.832Z,4.82
2023-03-03T07:23:19.897Z,4.81
2023-03-03T07:25:51.792Z,4.70
2023-03-03T07:28:29.845Z,5.03
2023-03-03T07:31:00.803Z,5.71
2023-03-03T07:33:38.298Z,5.84
2023-03-03T07:36:35.102Z,6.57
2023-03-03T07:39:41.046Z,6.81
2023-03-03T07:42:27.881Z,7.12
2023-03-03T07:45:01.699Z,7.50
2023-03-03T07:47:37.161Z,7.74
2023-03-03T07:50:21.654Z,7.35
2023-03-03T07:53:00.569Z,7.15
2023-03-03T07:55:38.170Z,7.00
2023-03-03T07:58:16.734Z,7.36
2023-03-03T08:01:34.590Z,7.18
2023-03-03T08:04:25.370Z,7.63
2023-03-03T08:06:59.245Z,8.45
2023-03-03T08:09:45.020Z,8.75
2023-03-03T08:12:47.423Z,9.07
2023-03-03T08:15:32.521Z,9.62
2023-03-03T08:18:02.806Z,9.60
2023-03-03T08:20:56.884Z,9.87
2023-03-03T08:23:26.999Z,10.68
2023-03-03T08:25:56.531Z,10.54
2023-03-03T08:28:26.092Z,10.63
2023-03-03T08:31:08.804Z,10.75
2023-03-03T08:33:45.477Z,10.84
2023-03-03T08:36:15.417Z,10.69
2023-03-03T08:38:44.950Z,10.41
2023-03-03T08:41:14.381Z,10.61
2023-03-03T08:43:45.483Z,10.10
2023-03-03T08:46:14.952Z,10.82
2023-03-03T08:48:43.668Z,10.44
2023-03-03T08:51:12.322Z,10.52
2023-03-03T08:53:42.057Z,10.23
2023-03-03T08:56:10.831Z,10.12
2023-03-03T08:58:49.811Z,10.26
2023-03-03T09:01:28.480Z,10.44
2023-03-03T09:03:58.114Z,10.19
2023-03-03T09:06:26.934Z,9.83
2023-03-03T09:08:55.950Z,10.06
2023-03-03T09:11:30.675Z,10.52
2023-03-03T09:14:21.133Z,10.39
2023-03-03T09:16:56.720Z,10.88
2023-03-03T09:19:34.851Z,10.56
2023-03-03T09:22:25.627Z,10.19
2023-03-03T09:24:59.215Z,9.76
2023-03-03T09:27:33.821Z,9.93
2023-03-03T09:30:29.325Z,9.53
2023-03-03T09:32:59.253Z,10.20
2023-03-03T09:35:36.883Z,9.62
2023-03-03T09:38:32.251Z,9.75
2023-03-03T09:41:58.349Z,9.56
2023-03-03T09:45:21.279Z,9.41
2023-03-03T09:48:26.016Z,9.50
2023-03-03T09:51:19.107Z,9.38
2023-03-03T09:54:27.870Z,9.50
2023-03-03T09:57:14.335Z,9.94
2023-03-03T10:00:15.991Z,10.06
2023-03-03T10:03:39.500Z,10.51
2023-03-03T10:06:53.004Z,10.62
2023-03-03T10:09:51.007Z,11.47
2023-03-03T10:12:50.556Z,11.01
2023-03-03T10:16:08.834Z,11.16
2023-03-03T10:18:59.977Z,11.18
2023-03-03T10:21:51.053Z,11.16
2023-03-03T10:25:05.834Z,11.33
2023-03-03T10:28:34.052Z,11.44
2023-03-03T10:31:51.215Z,11.84
2023-03-03T10:34:47.343Z,11.35
2023-03-03T10:38:30.148Z,11.60
2023-03-03T10:41:56.066Z,11.67
2023-03-03T10:44:45.810Z,10.99
2023-03-03T10:48:00.384Z,11.39
2023-03-03T10:51:06.264Z,11.79
2023-03-03T10:54:17.883Z,12.13
2023-03-03T10:57:44.170Z,11.88
2023-03-03T11:00:32.242Z,11.85
2023-03-03T11:03:24.810Z,11.82
2023-03-03T11:06:07.201Z,12.42
2023-03-03T11:09:09.188Z,12.10
2023-03-03T11:12:24.240Z,11.86
2023-03-03T11:16:05.339Z,11.45
2023-03-03T11:19:11.512Z,12.18
2023-03-03T11:22:10.873Z,11.39
2023-03-03T11:25:01.402Z,12.17
2023-03-03T11:28:15.408Z,11.60
2023-03-03T11:31:13.836Z,11.40
2023-03-03T11:34:37.957Z,11.47
2023-03-03T11:37:24.187Z,11.20
2023-03-03T11:40:01.942Z,11.40
2023-03-03T11:43:04.323Z,12.17
2023-03-03T11:45:52.254Z,12.93
2023-03-03T11:48:35.989Z,12.72
2023-03-03T11:51:15.510Z,13.14
2023-03-03T11:54:17.634Z,13.17
2023-03-03T11:56:49.067Z,13.36
2023-03-03T12:00:16.132Z,12.71
2023-03-03T12:03:32.025Z,13.60
2023-03-03T12:06:27.748Z,14.05
2023-03-03T12:09:14.812Z,14.07
2023-03-03T12:12:02.827Z,13.82
2023-03-03T12:14:58.453Z,13.96
2023-03-03T12:18:05.302Z,12.68
2023-03-03T12:21:14.301Z,12.72
2023-03-03T12:24:31.307Z,12.63
2023-03-03T12:27:03.014Z,13.58
2023-03-03T12:30:13.364Z,13.26
2023-03-03T12:33:42.839Z,13.24
2023-03-03T12:36:34.848Z,13.02
2023-03-03T12:39:45.659Z,12.51
2023-03-03T12:42:41.675Z,12.52
2023-03-03T12:45:51.127Z,12.95
2023-03-03T12:48:46.281Z,13.18
2023-03-03T12:51:48.366Z,13.06
2023-03-03T12:55:19.738Z,13.18
2023-03-03T12:58:06.660Z,13.04
2023-03-03T13:01:10.580Z,13.46
2023-03-03T13:04:09.058Z,13.21
2023-03-03T13:07:16.242Z,13.37
2023-03-03T13:10:30.010Z,13.32
2023-03-03T13:13:17.553Z,13.01
2023-03-03T13:16:06.341Z,13.49
2023-03-03T13:19:01.792Z,13.03
2023-03-03T13:22:08.583Z,13.14
2023-03-03T13:25:28.058Z,13.05
2023-03-03T13:28:26.301Z,13.02
2023-03-03T13:31:22.367Z,13.27
2023-03-03T13:34:02.101Z,13.34
2023-03-03T13:36:59.582Z,13.45
2023-03-03T13:39:38.734Z,13.91
2023-03-03T13:42:39.492Z,13.66
2023-03-03T13:45:24.958Z,13.43
2023-03-03T13:48:34.649Z,13.21
2023-03-03T13:51:49.729Z,13.71
2023-03-03T13:54:36.747Z,13.61
2023-03-03T13:57:58.708Z,13.22
2023-03-03T14:00:59.126Z,13.03
2023-03-03T14:04:06.219Z,13.08
2023-03-03T14:06:36.289Z,12.81
2023-03-03T14:09:22.170Z,12.77
2023-03-03T14:12:14.252Z,12.46
2023-03-03T14:15:16.727Z,12.39
2023-03-03T14:18:10.424Z,12.08
2023-03-03T14:20:51.783Z,12.64
2023-03-03T14:23:46.168Z,12.14
2023-03-03T14:26:15.675Z,12.25
2023-03-03T14:28:49.779Z,12.40
2023-03-03T14:31:43.581Z,12.22
2023-03-03T14:34:24.298Z,12.04
2023-03-03T14:37:20.566Z,12.42
2023-03-03T14:40:23.782Z,12.60
2023-03-03T14:42:53.073Z,12.07
2023-03-03T14:45:38.160Z,12.02
2023-03-03T14:48:27.270Z,12.07
2023-03-03T14:51:23.706Z,12.05
2023-03-03T14:53:53.902Z,11.94
2023-03-03T14:56:30.718Z,11.89
2023-03-03T14:59:24.822Z,11.91
2023-03-03T15:02:17.785Z,12.03
2023-03-03T15:04:49.072Z,11.93
2023-03-03T15:07:37.434Z,11.98
2023-03-03T15:10:09.987Z,11.84
2023-03-03T15:12:41.839Z,11.85
2023-03-03T15:15:25.493Z,11.69
2023-03-03T15:18:04.324Z,11.84
2023-03-03T15:21:10.894Z,11.78
2023-03-03T15:24:41.537Z,11.42
2023-03-03T15:27:42.557Z,11.13
2023-03-03T15:30:33.299Z,10.91
2023-03-03T15:33:34.165Z,10.84
2023-03-03T15:36:33.696Z,10.86
2023-03-03T15:39:39.739Z,10.70
2023-03-03T15:42:35.896Z,10.45
2023-03-03T15:45:15.171Z,10.43
2023-03-03T15:47:55.446Z,10.43
2023-03-03T15:51:22.992Z,10.30
2023-03-03T15:54:07.288Z,10.22
2023-03-03T15:57:02.299Z,10.05
2023-03-03T15:59:51.184Z,10.01
2023-03-03T16:02:51.061Z,9.93
2023-03-03T16:05:39.729Z,10.04
2023-03-03T16:08:48.626Z,9.63
2023-03-03T16:11:55.303Z,9.48
2023-03-03T16:15:07.912Z,9.49
2023-03-03T16:18:18.031Z,9.36
2023-03-03T16:21:19.097Z,9.30
2023-03-03T16:24:00.174Z,9.27
2023-03-03T16:27:11.565Z,9.17
2023-03-03T16:30:26.331Z,9.10
2023-03-03T16:33:21.920Z,8.79
2023-03-03T16:36:18.717Z,8.83
2023-03-03T16:39:08.356Z,8.78
2023-03-03T16:42:03.169Z,8.63
2023-03-03T16:45:24.976Z,8.50
2023-03-03T16:48:28.688Z,8.35
2023-03-03T16:51:46.998Z,8.30
2023-03-03T16:54:44.923Z,8.14
2023-03-03T16:57:31.654Z,8.07
2023-03-03T17:00:23.209Z,7.90
2023-03-03T17:03:00.252Z,7.86
2023-03-03T17:05:48.494Z,7.82
2023-03-03T17:08:56.454Z,7.85
2023-03-03T17:12:10.087Z,7.76
2023-03-03T17:14:54.447Z,7.61
2023-03-03T17:17:51.470Z,7.62
2023-03-03T17:20:50.656Z,7.60
2023-03-03T17:24:00.203Z,7.45
2023-03-03T17:27:25.876Z,7.53
2023-03-03T17:30:33.587Z,7.32
2023-03-03T17:33:50.148Z,7.41
2023-03-03T17:36:33.463Z,7.34
2023-03-03T17:39:57.836Z,7.25
2023-03-03T17:43:07.087Z,7.30
2023-03-03T17:45:43.535Z,7.25
2023-03-03T17:49:10.486Z,7.22
2023-03-03T17:52:13.930Z,7.20
2023-03-03T17:55:30.942Z,7.09
2023-03-03T17:58:57.531Z,6.98
2023-03-03T18:01:41.711Z,6.92
2023-03-03T18:05:01.317Z,6.87
2023-03-03T18:08:09.009Z,6.72
2023-03-03T18:11:30.879Z,6.68
2023-03-03T18:14:32.575Z,6.63
2023-03-03T18:18:00.175Z,6.81
2023-03-03T18:21:17.325Z,6.58
2023-03-03T18:23:49.690Z,6.52
2023-03-03T18:26:41.866Z,6.42
2023-03-03T18:29:28.632Z,6.25
2023-03-03T18:31:58.104Z,6.37
2023-03-03T18:34:41.190Z,6.46
2023-03-03T18:37:38.861Z,6.32
2023-03-03T18:40:08.317Z,6.22
2023-03-03T18:42:49.954Z,6.19
2023-03-03T18:45:23.172Z,6.20
2023-03-03T18:48:15.252Z,6.10
2023-03-03T18:50:49.588Z,6.07
2023-03-03T18:53:28.946Z,5.96
2023-03-03T18:56:02.536Z,5.91
2023-03-03T18:58:41.500Z,5.80
2023-03-03T19:01:33.608Z,5.68
2023-03-03T19:04:16.509Z,5.78
2023-03-03T19:06:48.948Z,5.77
2023-03-03T19:10:03.913Z,5.69
2023-03-03T19:12:53.996Z,5.63
2023-03-03T19:15:38.481Z,5.66
2023-03-03T19:18:28.227Z,5.57
2023-03-03T19:21:28.101Z,5.63
2023-03-03T19:24:04.989Z,5.57
2023-03-03T19:26:55.817Z,5.47
2023-03-03T19:29:58.616Z,5.26
2023-03-03T19:33:13.788Z,5.43
2023-03-03T19:36:14.730Z,5.29
2023-03-03T19:39:46.274Z,5.37
2023-03-03T19:43:16.564Z,5.33
2023-03-03T19:46:34.450Z,5.26
2023-03-03T19:49:48.586Z,5.19
2023-03-03T19:52:28.790Z,5.27
2023-03-03T19:55:51.498Z,5.21
2023-03-03T19:59:18.405Z,5.21
2023-03-03T20:01:54.677Z,5.13
2023-03-03T20:04:52.412Z,5.04
2023-03-03T20:08:01.693Z,4.92
2023-03-03T20:11:46.241Z,4.90
2023-03-03T20:14:49.272Z,4.61
2023-03-03T20:17:21.890Z,4.55
2023-03-03T20:20:41.473Z,4.50
2023-03-03T20:23:30.707Z,4.51
2023-03-03T20:26:21.750Z,4.51
2023-03-03T20:29:03.275Z,4.43
2023-03-03T20:32:15.499Z,4.44
2023-03-03T20:35:15.868Z,4.40
2023-03-03T20:38:21.385Z,4.30
2023-03-03T20:41:14.574Z,4.05
2023-03-03T20:44:11.764Z,4.09
2023-03-03T20:47:40.234Z,4.06
2023-03-03T20:50:24.837Z,4.09
2023-03-03T20:53:21.011Z,4.10
2023-03-03T20:56:14.343Z,3.89
2023-03-03T20:59:22.813Z,3.89
2023-03-03T21:02:23.918Z,3.81
2023-03-03T21:05:13.004Z,3.77
2023-03-03T21:08:01.999Z,3.80
2023-03-03T21:10:36.071Z,3.88
2023-03-03T21:13:44.402Z,3.88
2023-03-03T21:16:25.567Z,3.78
2023-03-03T21:19:11.882Z,3.85
2023-03-03T21:21:47.067Z,3.49
2023-03-03T21:24:20.072Z,3.57
2023-03-03T21:27:02.083Z,3.49
2023-03-03T21:29:35.943Z,3.50
2023-03-03T21:32:09.667Z,3.60
2023-03-03T21:34:42.582Z,3.59
2023-03-03T21:37:15.532Z,3.63
2023-03-03T21:39:45.497Z,3.67
2023-03-03T21:42:26.199Z,3.68
2023-03-03T21:44:55.982Z,3.53
2023-03-03T21:47:29.439Z,3.27
2023-03-03T21:49:59.507Z,3.19
2023-03-03T21:52:29.980Z,3.22
2023-03-03T21:54:59.737Z,2.75
2023-03-03T21:57:29.431Z,2.82
2023-03-03T21:59:59.206Z,2.96
2023-03-03T22:02:29.696Z,2.64
2023-03-03T22:05:01.048Z,2.49
2023-03-03T22:07:31.547Z,2.39
2023-03-03T22:10:02.130Z,2.35
2023-03-03T22:12:32.614Z,2.23
2023-03-03T22:15:02.182Z,2.15
2023-03-03T22:17:32.716Z,2.26
2023-03-03T22:20:02.243Z,2.29
2023-03-03T22:22:31.888Z,2.26
2023-03-03T22:25:02.530Z,2.04
2023-03-03T22:27:30.401Z,2.18
2023-03-03T22:30:01.380Z,2.36
2023-03-03T22:32:31.114Z,2.04
2023-03-03T22:35:01.637Z,1.82
2023-03-03T22:37:32.135Z,2.00
2023-03-03T22:40:02.805Z,1.85
2023-03-03T22:42:32.505Z,1.89
2023-03-03T22:45:02.184Z,1.83
2023-03-03T22:47:32.913Z,1.75
2023-03-03T22:50:03.667Z,1.83
2023-03-03T22:52:33.411Z,1.76
2023-03-03T22:55:04.349Z,1.78
2023-03-03T22:57:34.814Z,1.78
2023-03-03T23:00:07.390Z,1.65
2023-03-03T23:02:38.276Z,1.30
2023-03-03T23:05:08.747Z,1.01
2023-03-03T23:07:41.134Z,0.95
2023-03-03T23:10:12.364Z,0.93
2023-03-03T23:12:42.909Z,0.89
2023-03-03T23:15:15.071Z,0.94
2023-03-03T23:17:47.089Z,1.26
2023-03-03T23:20:26.823Z,1.29
2023-03-03T23:22:57.785Z,1.45
2023-03-03T23:25:29.147Z,1.52
2023-03-03T23:28:00.581Z,1.28
2023-03-03T23:30:30.215Z,1.44
2023-03-03T23:32:59.845Z,1.30
2023-03-03T23:35:30.285Z,1.43
2023-03-03T23:37:59.934Z,1.56
2023-03-03T23:40:29.612Z,1.47
2023-03-03T23:42:59.266Z,1.43
2023-03-03T23:45:28.939Z,1.46
2023-03-03T23:47:58.624Z,1.30
2023-03-03T23:50:28.448Z,1.33
2023-03-03T23:52:58.053Z,1.36
2023-03-03T23:55:27.770Z,1.27
2023-03-03T23:57:57.390Z,1.14
